createdAt,value
2023-04-20T00:00:11.130Z,12.70
2023-04-20T00:02:41.879Z,12.70
2023-04-20T00:05:10.892Z,12.60
2023-04-20T00:07:38.713Z,12.60
2023-04-20T00:10:07.127Z,12.60
2023-04-20T00:12:34.568Z,12.60
2023-04-20T00:15:02.091Z,12.50
2023-04-20T00:17:29.575Z,12.50
2023-04-20T00:19:57.110Z,12.40
2023-04-20T00:22:25.327Z,12.40
2023-04-20T00:24:52.716Z,12.40
2023-04-20T00:27:20.105Z,12.30
2023-04-20T00:29:47.603Z,12.30
2023-04-20T00:32:15.057Z,12.10
2023-04-20T00:34:42.468Z,12.10
2023-04-20T00:37:09.923Z,12.00
2023-04-20T00:39:37.431Z,11.90
2023-04-20T00:42:08.845Z,12.00
2023-04-20T00:44:36.299Z,12.00
2023-04-20T00:47:03.722Z,12.00
2023-04-20T00:49:33.690Z,12.00
2023-04-20T00:52:01.579Z,12.00
2023-04-20T00:54:30.409Z,12.10
2023-04-20T00:56:59.605Z,12.20
2023-04-20T00:59:27.515Z,12.00
2023-04-20T01:01:54.921Z,11.90
2023-04-20T01:04:22.413Z,11.90
2023-04-20T01:06:51.060Z,11.90
2023-04-20T01:09:18.633Z,11.90
2023-04-20T01:11:46.241Z,11.90
2023-04-20T01:14:17.009Z,11.90
2023-04-20T01:16:44.992Z,11.80
2023-04-20T01:19:13.756Z,11.70
2023-04-20T01:21:41.522Z,11.70
2023-04-20T01:24:09.011Z,11.60
2023-04-20T01:26:36.461Z,11.50
2023-04-20T01:29:04.132Z,11.40
2023-04-20T01:31:31.809Z,11.40
2023-04-20T01:33:59.325Z,11.40
2023-04-20T01:36:27.148Z,11.40
2023-04-20T01:38:54.634Z,11.30
2023-04-20T01:41:22.172Z,11.40
2023-04-20T01:43:49.652Z,11.40
2023-04-20T01:46:17.098Z,11.40
2023-04-20T01:48:44.618Z,11.40
2023-04-20T01:51:11.964Z,11.40
2023-04-20T01:53:40.127Z,11.40
2023-04-20T01:56:08.156Z,11.40
2023-04-20T01:58:35.819Z,11.40
2023-04-20T02:01:03.405Z,11.40
2023-04-20T02:03:31.061Z,11.30
2023-04-20T02:05:58.567Z,11.40
2023-04-20T02:08:30.402Z,11.40
2023-04-20T02:10:57.838Z,11.40
2023-04-20T02:13:25.636Z,11.40
2023-04-20T02:15:53.262Z,11.50
2023-04-20T02:18:22.989Z,11.50
2023-04-20T02:20:50.896Z,11.60
2023-04-20T02:23:18.332Z,11.60
2023-04-20T02:25:45.776Z,11.60
2023-04-20T02:28:13.180Z,11.60
2023-04-20T02:30:40.721Z,11.70
2023-04-20T02:33:08.334Z,11.70
2023-04-20T02:35:36.143Z,11.70
2023-04-20T02:38:03.641Z,11.60
2023-04-20T02:40:31.116Z,11.60
2023-04-20T02:42:58.817Z,11.70
2023-04-20T02:45:27.961Z,11.70
2023-04-20T02:47:55.769Z,11.70
2023-04-20T02:50:23.285Z,11.60
2023-04-20T02:53:02.555Z,11.60
2023-04-20T02:55:33.088Z,11.60
2023-04-20T02:58:06.022Z,11.60
2023-04-20T03:01:05.708Z,11.60
2023-04-20T03:03:34.688Z,11.60
2023-04-20T03:06:02.306Z,11.60
2023-04-20T03:08:29.881Z,11.60
2023-04-20T03:11:01.927Z,11.60
2023-04-20T03:13:29.380Z,11.60
2023-04-20T03:16:00.839Z,11.70
2023-04-20T03:18:51.501Z,11.70
2023-04-20T03:21:18.927Z,11.70
2023-04-20T03:23:46.560Z,11.70
2023-04-20T03:26:14.099Z,11.60
2023-04-20T03:29:05.626Z,11.70
2023-04-20T03:31:33.286Z,11.70
2023-04-20T03:34:00.834Z,11.60
2023-04-20T03:36:32.579Z,11.60
2023-04-20T03:39:00.067Z,11.60
2023-04-20T03:41:27.890Z,11.60
2023-04-20T03:43:56.000Z,11.60
2023-04-20T03:46:23.659Z,11.60
2023-04-20T03:48:51.130Z,11.70
2023-04-20T03:51:18.515Z,11.70
2023-04-20T03:53:45.962Z,11.80
2023-04-20T03:56:14.564Z,11.80
2023-04-20T03:58:43.077Z,11.80
2023-04-20T04:01:17.364Z,11.80
2023-04-20T04:03:48.332Z,11.80
2023-04-20T04:06:16.041Z,11.80
2023-04-20T04:08:43.620Z,11.80
2023-04-20T04:11:11.276Z,11.80
2023-04-20T04:13:38.649Z,11.80
2023-04-20T04:16:08.644Z,11.70
2023-04-20T04:18:36.559Z,11.80
2023-04-20T04:21:10.464Z,11.80
2023-04-20T04:23:42.315Z,11.80
2023-04-20T04:26:15.771Z,11.80
2023-04-20T04:28:49.360Z,11.80
2023-04-20T04:31:19.851Z,11.80
2023-04-20T04:33:48.043Z,11.90
2023-04-20T04:36:26.936Z,11.90
2023-04-20T04:38:56.441Z,11.90
2023-04-20T04:41:24.149Z,11.90
2023-04-20T04:43:52.379Z,11.90
2023-04-20T04:46:32.224Z,12.00
2023-04-20T04:49:02.886Z,12.00
2023-04-20T04:51:31.728Z,12.00
2023-04-20T04:53:59.362Z,12.00
2023-04-20T04:56:26.807Z,12.00
2023-04-20T04:58:54.317Z,12.10
2023-04-20T05:01:22.075Z,12.20
2023-04-20T05:03:49.958Z,12.20
2023-04-20T05:06:17.445Z,12.30
2023-04-20T05:08:44.939Z,12.20
2023-04-20T05:11:12.312Z,12.20
2023-04-20T05:13:39.715Z,12.20
2023-04-20T05:16:07.333Z,12.20
2023-04-20T05:18:34.828Z,12.20
2023-04-20T05:21:02.436Z,12.30
2023-04-20T05:23:29.809Z,12.40
2023-04-20T05:25:57.283Z,12.50
2023-04-20T05:28:24.686Z,12.60
2023-04-20T05:30:55.118Z,12.60
2023-04-20T05:33:22.750Z,12.60
2023-04-20T05:35:51.595Z,12.70
2023-04-20T05:38:19.007Z,12.70
2023-04-20T05:40:46.410Z,12.70
2023-04-20T05:43:13.842Z,12.80
2023-04-20T05:45:41.186Z,12.90
2023-04-20T05:48:08.628Z,12.90
2023-04-20T05:50:36.114Z,12.80
2023-04-20T05:53:03.551Z,12.80
2023-04-20T05:55:30.928Z,12.80
2023-04-20T05:57:58.352Z,12.90
2023-04-20T06:00:26.289Z,12.90
2023-04-20T06:02:55.088Z,12.90
2023-04-20T06:05:22.847Z,13.00
2023-04-20T06:07:50.393Z,12.90
2023-04-20T06:10:17.834Z,12.90
2023-04-20T06:12:45.448Z,12.90
2023-04-20T06:15:12.893Z,12.90
2023-04-20T06:17:40.642Z,13.10
2023-04-20T06:20:10.308Z,13.10
2023-04-20T06:22:42.372Z,13.50
2023-04-20T06:25:10.705Z,13.70
2023-04-20T06:27:38.208Z,13.80
2023-04-20T06:30:06.642Z,13.60
2023-04-20T06:32:34.117Z,13.50
2023-04-20T06:35:01.596Z,13.50
2023-04-20T06:37:29.145Z,13.40
2023-04-20T06:39:56.629Z,13.40
2023-04-20T06:42:24.123Z,13.30
2023-04-20T06:44:51.596Z,13.30
2023-04-20T06:47:19.143Z,13.40
2023-04-20T06:49:46.580Z,13.40
2023-04-20T06:52:13.914Z,13.50
2023-04-20T06:54:41.257Z,13.60
2023-04-20T06:57:08.673Z,13.60
2023-04-20T06:59:36.215Z,13.50
2023-04-20T07:02:03.838Z,13.50
2023-04-20T07:04:31.542Z,13.70
2023-04-20T07:06:58.953Z,13.80
2023-04-20T07:09:27.034Z,13.90
2023-04-20T07:11:56.387Z,14.00
2023-04-20T07:14:23.899Z,14.10
2023-04-20T07:16:54.900Z,13.90
2023-04-20T07:19:22.359Z,13.90
2023-04-20T07:21:49.797Z,14.00
2023-04-20T07:24:17.268Z,14.20
2023-04-20T07:26:44.768Z,14.20
2023-04-20T07:29:12.126Z,14.10
2023-04-20T07:31:39.551Z,14.30
2023-04-20T07:34:07.290Z,14.60
2023-04-20T07:36:34.764Z,14.50
2023-04-20T07:39:02.138Z,14.80
2023-04-20T07:41:29.561Z,15.10
2023-04-20T07:43:56.987Z,15.10
2023-04-20T07:46:24.613Z,15.10
2023-04-20T07:48:52.011Z,15.10
2023-04-20T07:51:19.447Z,14.60
2023-04-20T07:53:47.264Z,14.40
2023-04-20T07:56:14.669Z,14.80
2023-04-20T07:58:42.031Z,14.80
2023-04-20T08:01:11.011Z,14.50
2023-04-20T08:03:38.657Z,14.70
2023-04-20T08:06:06.672Z,15.00
2023-04-20T08:08:34.132Z,15.30
2023-04-20T08:11:01.568Z,15.20
2023-04-20T08:13:29.224Z,15.70
2023-04-20T08:15:56.625Z,15.70
2023-04-20T08:18:24.152Z,15.40
2023-04-20T08:20:51.585Z,15.80
2023-04-20T08:23:18.977Z,15.80
2023-04-20T08:25:46.432Z,15.90
2023-04-20T08:28:19.710Z,15.70
2023-04-20T08:31:00.209Z,15.50
2023-04-20T08:33:27.626Z,15.40
2023-04-20T08:35:55.021Z,15.60
2023-04-20T08:38:32.813Z,15.70
2023-04-20T08:41:02.270Z,15.30
2023-04-20T08:43:30.088Z,15.70
2023-04-20T08:46:05.799Z,15.80
2023-04-20T08:48:37.867Z,16.00
2023-04-20T08:51:06.264Z,15.70
2023-04-20T08:53:33.971Z,15.80
2023-04-20T08:56:01.477Z,15.70
2023-04-20T08:58:33.768Z,15.50
2023-04-20T09:01:01.411Z,16.00
2023-04-20T09:03:36.836Z,16.30
2023-04-20T09:06:15.238Z,16.00
2023-04-20T09:08:46.184Z,15.70
2023-04-20T09:11:27.507Z,15.80
2023-04-20T09:14:12.677Z,15.30
2023-04-20T09:16:54.272Z,15.20
2023-04-20T09:19:26.311Z,15.20
2023-04-20T09:21:56.142Z,15.30
2023-04-20T09:24:31.536Z,15.00
2023-04-20T09:26:59.343Z,15.00
2023-04-20T09:29:26.846Z,14.90
2023-04-20T09:31:54.848Z,14.60
2023-04-20T09:34:24.034Z,14.80
2023-04-20T09:36:55.515Z,14.90
2023-04-20T09:39:24.282Z,15.20
2023-04-20T09:41:52.686Z,15.40
2023-04-20T09:44:20.502Z,15.20
2023-04-20T09:46:47.894Z,15.20
2023-04-20T09:49:15.416Z,15.20
2023-04-20T09:51:46.770Z,15.30
2023-04-20T09:54:15.812Z,15.30
2023-04-20T09:56:43.786Z,15.00
2023-04-20T09:59:12.058Z,15.00
2023-04-20T10:01:39.535Z,15.20
2023-04-20T10:04:09.775Z,15.40
2023-04-20T10:06:37.919Z,15.20
2023-04-20T10:09:07.526Z,15.30
2023-04-20T10:11:53.272Z,15.10
2023-04-20T10:14:26.169Z,15.10
2023-04-20T10:17:05.146Z,15.30
2023-04-20T10:19:46.959Z,15.20
2023-04-20T10:22:30.795Z,14.90
2023-04-20T10:24:58.650Z,15.10
2023-04-20T10:27:26.219Z,15.10
2023-04-20T10:29:53.642Z,15.10
2023-04-20T10:32:28.943Z,15.10
2023-04-20T10:35:04.849Z,15.00
2023-04-20T10:37:32.903Z,14.90
2023-04-20T10:40:00.833Z,14.80
2023-04-20T10:42:29.733Z,14.80
2023-04-20T10:44:57.278Z,14.60
2023-04-20T10:47:32.407Z,14.40
2023-04-20T10:50:10.584Z,14.60
2023-04-20T10:52:39.936Z,14.50
2023-04-20T10:55:18.806Z,14.40
2023-04-20T10:57:46.219Z,14.40
2023-04-20T11:00:25.439Z,14.30
2023-04-20T11:02:54.972Z,14.00
2023-04-20T11:05:27.321Z,13.50
2023-04-20T11:07:55.278Z,12.90
2023-04-20T11:10:40.129Z,12.60
2023-04-20T11:13:08.171Z,12.60
2023-04-20T11:15:36.264Z,12.30
2023-04-20T11:18:11.957Z,12.30
2023-04-20T11:20:53.998Z,12.30
2023-04-20T11:23:22.936Z,12.30
2023-04-20T11:25:57.313Z,12.10
2023-04-20T11:28:25.951Z,12.20
2023-04-20T11:30:54.175Z,12.30
2023-04-20T11:33:33.208Z,12.30
2023-04-20T11:36:02.203Z,12.40
2023-04-20T11:38:31.549Z,12.50
2023-04-20T11:41:04.472Z,12.40
2023-04-20T11:43:32.531Z,12.40
2023-04-20T11:46:05.475Z,12.40
2023-04-20T11:48:32.885Z,12.40
2023-04-20T11:51:00.252Z,12.40
2023-04-20T11:53:27.577Z,12.40
2023-04-20T11:55:54.954Z,12.40
2023-04-20T11:58:22.534Z,12.40
2023-04-20T12:00:49.932Z,12.40
2023-04-20T12:03:17.770Z,12.50
2023-04-20T12:05:45.261Z,12.50
2023-04-20T12:08:12.829Z,12.50
2023-04-20T12:10:40.288Z,12.60
2023-04-20T12:13:07.687Z,12.70
2023-04-20T12:15:35.138Z,12.70
2023-04-20T12:18:02.623Z,12.70
2023-04-20T12:20:30.092Z,12.60
2023-04-20T12:22:58.989Z,12.70
2023-04-20T12:25:26.583Z,12.90
2023-04-20T12:27:54.229Z,13.00
2023-04-20T12:30:21.602Z,13.10
2023-04-20T12:32:48.990Z,13.10
2023-04-20T12:35:16.471Z,13.00
2023-04-20T12:37:43.850Z,13.10
2023-04-20T12:40:11.572Z,13.30
2023-04-20T12:42:39.053Z,13.20
2023-04-20T12:45:07.046Z,13.30
2023-04-20T12:47:34.458Z,13.40
2023-04-20T12:50:02.417Z,13.50
2023-04-20T12:52:29.864Z,13.70
2023-04-20T12:54:57.274Z,13.80
2023-04-20T12:57:24.709Z,13.70
2023-04-20T12:59:52.191Z,13.70
2023-04-20T13:02:19.730Z,13.90
2023-04-20T13:04:47.326Z,13.80
2023-04-20T13:07:14.655Z,13.60
2023-04-20T13:09:42.030Z,13.90
2023-04-20T13:12:09.946Z,14.00
2023-04-20T13:14:37.386Z,13.90
2023-04-20T13:17:06.826Z,13.80
2023-04-20T13:19:34.378Z,14.10
2023-04-20T13:22:01.793Z,14.00
2023-04-20T13:24:29.333Z,13.90
2023-04-20T13:26:57.309Z,14.10
2023-04-20T13:29:25.660Z,14.00
2023-04-20T13:31:53.090Z,14.00
2023-04-20T13:34:20.836Z,14.00
2023-04-20T13:36:48.962Z,14.00
2023-04-20T13:39:17.727Z,13.60
2023-04-20T13:41:45.616Z,13.70
2023-04-20T13:44:16.142Z,13.60
2023-04-20T13:46:45.182Z,13.70
2023-04-20T13:49:13.488Z,13.60
2023-04-20T13:51:41.447Z,13.70
2023-04-20T13:54:08.886Z,13.70
2023-04-20T13:56:36.327Z,13.80
2023-04-20T13:59:04.191Z,13.80
2023-04-20T14:01:31.825Z,13.70
2023-04-20T14:03:59.605Z,13.90
2023-04-20T14:06:27.698Z,13.90
2023-04-20T14:08:55.247Z,13.80
2023-04-20T14:11:22.757Z,13.80
2023-04-20T14:13:50.292Z,13.90
2023-04-20T14:16:17.749Z,14.00
2023-04-20T14:18:46.144Z,14.10
2023-04-20T14:21:13.575Z,14.10
2023-04-20T14:23:41.011Z,13.90
2023-04-20T14:26:08.499Z,14.10
2023-04-20T14:28:35.989Z,14.10
2023-04-20T14:31:03.557Z,14.00
2023-04-20T14:33:30.991Z,14.10
2023-04-20T14:35:58.496Z,14.10
2023-04-20T14:38:25.966Z,14.30
2023-04-20T14:40:53.879Z,14.30
2023-04-20T14:43:21.366Z,14.40
2023-04-20T14:45:50.527Z,14.40
2023-04-20T14:48:18.067Z,14.70
2023-04-20T14:50:45.428Z,14.90
2023-04-20T14:53:12.803Z,15.20
2023-04-20T14:55:40.808Z,14.80
2023-04-20T14:58:08.358Z,14.70
2023-04-20T15:00:35.725Z,14.60
2023-04-20T15:03:03.960Z,14.70
2023-04-20T15:05:31.677Z,14.70
2023-04-20T15:07:59.126Z,14.90
2023-04-20T15:10:26.528Z,15.00
2023-04-20T15:12:53.968Z,14.90
2023-04-20T15:15:21.611Z,14.50
2023-04-20T15:17:49.025Z,14.70
2023-04-20T15:20:16.751Z,14.50
2023-04-20T15:22:44.281Z,14.50
2023-04-20T15:25:12.151Z,14.60
2023-04-20T15:27:39.709Z,14.50
2023-04-20T15:30:08.112Z,14.40
2023-04-20T15:32:35.554Z,14.50
2023-04-20T15:35:02.976Z,14.40
2023-04-20T15:37:30.377Z,14.60
2023-04-20T15:39:59.205Z,14.50
2023-04-20T15:42:27.555Z,14.40
2023-04-20T15:44:54.904Z,14.30
2023-04-20T15:47:22.338Z,14.30
2023-04-20T15:49:49.792Z,14.30
2023-04-20T15:52:17.227Z,14.30
2023-04-20T15:54:47.335Z,14.10
2023-04-20T15:57:14.737Z,14.00
2023-04-20T15:59:42.098Z,14.10
2023-04-20T16:02:09.567Z,14.10
2023-04-20T16:04:37.128Z,14.10
2023-04-20T16:07:04.843Z,14.20
2023-04-20T16:09:32.194Z,14.10
2023-04-20T16:11:59.620Z,14.00
2023-04-20T16:14:27.044Z,14.20
2023-04-20T16:16:54.936Z,14.10
2023-04-20T16:19:22.337Z,14.00
2023-04-20T16:21:49.752Z,14.00
2023-04-20T16:24:17.395Z,14.10
2023-04-20T16:26:45.165Z,14.10
2023-04-20T16:29:12.568Z,14.00
2023-04-20T16:31:41.101Z,14.10
2023-04-20T16:34:08.515Z,14.10
2023-04-20T16:36:35.903Z,14.10
2023-04-20T16:39:05.860Z,14.20
2023-04-20T16:41:33.372Z,14.10
2023-04-20T16:44:00.798Z,14.10
2023-04-20T16:46:28.278Z,14.00
2023-04-20T16:48:55.695Z,14.10
2023-04-20T16:51:23.257Z,14.00
2023-04-20T16:53:51.852Z,14.00
2023-04-20T16:56:19.266Z,14.00
2023-04-20T16:58:47.002Z,14.00
2023-04-20T17:01:14.818Z,14.00
2023-04-20T17:03:42.489Z,14.00
2023-04-20T17:06:10.110Z,13.90
2023-04-20T17:08:37.748Z,13.90
2023-04-20T17:11:05.986Z,13.90
2023-04-20T17:13:34.163Z,13.80
2023-04-20T17:16:01.703Z,13.80
2023-04-20T17:18:29.168Z,13.70
2023-04-20T17:21:00.870Z,13.70
2023-04-20T17:23:28.342Z,13.60
2023-04-20T17:25:56.028Z,13.70
2023-04-20T17:28:23.605Z,13.70
2023-04-20T17:30:51.056Z,13.60
2023-04-20T17:33:18.560Z,13.60
2023-04-20T17:35:46.558Z,13.50
2023-04-20T17:38:14.050Z,13.50
2023-04-20T17:40:41.449Z,13.50
2023-04-20T17:43:08.943Z,13.40
2023-04-20T17:45:37.209Z,13.40
2023-04-20T17:48:05.157Z,13.20
2023-04-20T17:50:33.280Z,13.10
2023-04-20T17:53:06.507Z,12.90
2023-04-20T17:55:35.143Z,12.80
2023-04-20T17:58:02.722Z,12.70
2023-04-20T18:00:30.186Z,12.70
2023-04-20T18:03:00.153Z,12.70
2023-04-20T18:05:27.732Z,12.50
2023-04-20T18:07:55.745Z,12.40
2023-04-20T18:10:23.121Z,12.00
2023-04-20T18:12:50.494Z,12.00
2023-04-20T18:15:17.963Z,11.90
2023-04-20T18:17:45.545Z,11.80
2023-04-20T18:20:12.998Z,11.80
2023-04-20T18:22:40.491Z,11.70
2023-04-20T18:25:08.238Z,11.70
2023-04-20T18:27:35.726Z,11.70
2023-04-20T18:30:03.585Z,11.70
2023-04-20T18:32:31.434Z,11.70
2023-04-20T18:35:00.289Z,11.70
2023-04-20T18:37:27.692Z,11.70
2023-04-20T18:39:55.302Z,11.70
2023-04-20T18:42:22.810Z,11.70
2023-04-20T18:44:51.356Z,11.70
2023-04-20T18:47:20.647Z,11.70
2023-04-20T18:49:48.341Z,11.70
2023-04-20T18:52:15.826Z,11.70
2023-04-20T18:54:43.238Z,11.70
2023-04-20T18:57:10.563Z,11.70
2023-04-20T18:59:38.005Z,11.70
2023-04-20T19:02:07.019Z,11.70
2023-04-20T19:04:36.291Z,11.80
2023-04-20T19:07:03.746Z,11.80
2023-04-20T19:09:31.291Z,11.80
2023-04-20T19:11:58.721Z,11.80
2023-04-20T19:14:26.201Z,11.90
2023-04-20T19:16:53.711Z,11.90
2023-04-20T19:19:21.230Z,12.00
2023-04-20T19:21:48.705Z,11.90
2023-04-20T19:24:16.496Z,12.00
2023-04-20T19:26:44.243Z,12.00
2023-04-20T19:29:12.621Z,12.00
2023-04-20T19:31:42.024Z,12.00
2023-04-20T19:34:09.632Z,12.10
2023-04-20T19:36:36.993Z,12.10
2023-04-20T19:39:06.968Z,12.10
2023-04-20T19:41:34.725Z,12.10
2023-04-20T19:44:06.150Z,12.10
2023-04-20T19:46:33.949Z,12.20
2023-04-20T19:49:01.684Z,12.20
2023-04-20T19:51:31.060Z,12.10
2023-04-20T19:54:00.467Z,12.10
2023-04-20T19:56:27.955Z,12.10
2023-04-20T19:58:55.319Z,12.10
2023-04-20T20:01:22.745Z,12.10
2023-04-20T20:03:50.290Z,12.10
2023-04-20T20:06:18.439Z,12.10
2023-04-20T20:08:45.934Z,12.10
2023-04-20T20:11:13.332Z,12.10
2023-04-20T20:13:40.735Z,12.00
2023-04-20T20:16:10.258Z,12.00
2023-04-20T20:18:38.225Z,11.90
2023-04-20T20:21:05.689Z,11.90
2023-04-20T20:23:33.260Z,11.90
2023-04-20T20:26:00.807Z,11.80
2023-04-20T20:28:28.480Z,11.80
2023-04-20T20:30:56.310Z,11.70
2023-04-20T20:33:23.796Z,11.70
2023-04-20T20:35:51.124Z,11.60
2023-04-20T20:38:20.880Z,11.70
2023-04-20T20:40:50.571Z,11.60
2023-04-20T20:43:18.943Z,11.60
2023-04-20T20:45:47.339Z,11.50
2023-04-20T20:48:14.691Z,11.50
2023-04-20T20:50:42.180Z,11.50
2023-04-20T20:53:09.618Z,11.50
2023-04-20T20:55:37.070Z,11.40
2023-04-20T20:58:04.604Z,11.40
2023-04-20T21:00:33.407Z,11.40
2023-04-20T21:03:01.322Z,11.50
2023-04-20T21:05:28.836Z,11.50
2023-04-20T21:07:56.366Z,11.50
2023-04-20T21:10:23.963Z,11.60
2023-04-20T21:12:51.335Z,11.60
2023-04-20T21:15:18.779Z,11.60
2023-04-20T21:17:46.262Z,11.70
2023-04-20T21:20:13.773Z,11.80
2023-04-20T21:22:41.200Z,11.80
2023-04-20T21:25:08.738Z,11.80
2023-04-20T21:27:36.134Z,11.80
2023-04-20T21:30:04.749Z,11.80
2023-04-20T21:32:32.138Z,11.90
2023-04-20T21:34:59.513Z,11.90
2023-04-20T21:37:27.061Z,11.90
2023-04-20T21:39:54.443Z,11.90
2023-04-20T21:42:21.862Z,11.90
2023-04-20T21:44:49.230Z,11.90
2023-04-20T21:47:16.598Z,11.90
2023-04-20T21:49:43.953Z,12.00
2023-04-20T21:52:11.352Z,12.00
2023-04-20T21:54:40.805Z,12.00
2023-04-20T21:57:08.234Z,12.00
2023-04-20T21:59:35.726Z,12.10
2023-04-20T22:02:04.447Z,12.10
2023-04-20T22:04:32.237Z,12.40
2023-04-20T22:07:00.416Z,12.40
2023-04-20T22:09:27.799Z,12.40
2023-04-20T22:11:55.815Z,12.50
2023-04-20T22:14:23.600Z,12.40
2023-04-20T22:16:52.269Z,12.40
2023-04-20T22:19:19.817Z,12.40
2023-04-20T22:21:47.285Z,12.30
2023-04-20T22:24:14.656Z,12.40
2023-04-20T22:26:42.223Z,12.40
2023-04-20T22:29:09.579Z,12.40
2023-04-20T22:31:37.014Z,12.40
2023-04-20T22:34:04.387Z,12.40
2023-04-20T22:36:32.562Z,12.40
2023-04-20T22:38:59.930Z,12.40
2023-04-20T22:41:27.363Z,12.40
2023-04-20T22:43:54.698Z,12.40
2023-04-20T22:46:22.163Z,12.50
2023-04-20T22:48:49.547Z,12.50
2023-04-20T22:51:17.328Z,12.50
2023-04-20T22:53:44.919Z,12.50
2023-04-20T22:56:12.297Z,12.60
2023-04-20T22:58:39.673Z,12.60
2023-04-20T23:01:07.078Z,12.70
2023-04-20T23:03:34.548Z,12.70
2023-04-20T23:06:02.017Z,12.70
2023-04-20T23:08:29.611Z,12.70
2023-04-20T23:10:57.116Z,12.70
2023-04-20T23:13:26.185Z,12.70
2023-04-20T23:15:53.967Z,12.60
2023-04-20T23:18:21.523Z,12.50
2023-04-20T23:20:49.052Z,12.50
2023-04-20T23:23:16.504Z,12.50
2023-04-20T23:25:43.996Z,12.40
2023-04-20T23:28:11.451Z,12.40
2023-04-20T23:30:38.918Z,12.30
2023-04-20T23:33:06.418Z,12.30
2023-04-20T23:35:34.061Z,12.30
2023-04-20T23:38:02.056Z,12.30
2023-04-20T23:40:29.596Z,12.30
2023-04-20T23:42:57.041Z,12.30
2023-04-20T23:45:24.605Z,12.20
2023-04-20T23:47:52.002Z,12.20
2023-04-20T23:50:19.510Z,12.10
2023-04-20T23:52:46.988Z,12.10
2023-04-20T23:55:14.367Z,12.00
2023-04-20T23:57:41.786Z,12.00
